createdAt,value
2022-10-02T00:09:41.550Z,12.1
2022-10-02T00:19:42.541Z,12.3
2022-10-02T00:29:43.208Z,12.3
2022-10-02T00:59:44.768Z,12.4
2022-10-02T01:09:45.741Z,12.5
2022-10-02T01:19:46.706Z,12.7
2022-10-02T01:29:47.488Z,12.8
2022-10-02T01:39:47.822Z,12.8
2022-10-02T01:49:48.447Z,12.8
2022-10-02T02:09:49.349Z,12.7
2022-10-02T02:19:49.349Z,12.6
2022-10-02T02:29:49.770Z,12.7
2022-10-02T02:39:50.055Z,12.7
2022-10-02T02:49:51.002Z,12.7
2022-10-02T03:39:54.195Z,12.7
2022-10-02T04:29:57.194Z,13.1
2022-10-02T04:39:58.183Z,13.2
2022-10-02T04:49:58.615Z,13.3
2022-10-02T04:59:59.542Z,13.2
2022-10-02T05:09:59.619Z,13.2
2022-10-02T05:29:59.782Z,13.2
2022-10-02T05:40:00.380Z,13.1
2022-10-02T05:50:00.735Z,13.2
2022-10-02T06:00:01.313Z,13.3
2022-10-02T06:10:02.169Z,13.4
2022-10-02T06:20:03.923Z,13.4
2022-10-02T06:30:04.052Z,13.5
2022-10-02T06:40:04.433Z,13.6
2022-10-02T06:50:04.577Z,13.8
2022-10-02T07:00:05.145Z,13.9
2022-10-02T07:10:05.589Z,14.1
2022-10-02T07:20:06.217Z,14.1
2022-10-02T07:40:07.194Z,14.4
2022-10-02T07:50:07.971Z,14.6
2022-10-02T08:10:08.678Z,14.8
2022-10-02T08:20:09.168Z,15
2022-10-02T08:30:09.646Z,15.2
2022-10-02T08:40:10.411Z,15.2
2022-10-02T08:50:10.457Z,15.4
2022-10-02T09:30:12.735Z,15.6
2022-10-02T09:40:13.599Z,16.1
2022-10-02T09:50:14.638Z,16.1
2022-10-02T10:00:22.108Z,15.9
2022-10-02T10:10:15.659Z,16.5
2022-10-02T10:30:16.097Z,16.3
2022-10-02T10:40:16.595Z,16.7
2022-10-02T10:50:16.637Z,16.2
2022-10-02T11:00:24.626Z,16.5
2022-10-02T11:10:18.346Z,17.6
2022-10-02T11:20:18.500Z,17
2022-10-02T11:30:18.644Z,17.2
2022-10-02T11:40:18.716Z,17.9
2022-10-02T11:50:19.511Z,17.7
2022-10-02T12:00:20.118Z,17.1
2022-10-02T12:20:21.365Z,17.1
2022-10-02T12:30:22.354Z,16.8
2022-10-02T12:40:23.007Z,17
2022-10-02T12:50:23.415Z,16.9
2022-10-02T13:00:24.178Z,16.8
2022-10-02T13:40:26.775Z,15.4
2022-10-02T13:50:27.166Z,15.5
2022-10-02T14:00:27.518Z,15
2022-10-02T14:10:28.079Z,14.8
2022-10-02T14:20:28.826Z,14.9
2022-10-02T14:30:29.829Z,15.2
2022-10-02T14:40:30.149Z,15.5
2022-10-02T14:50:30.387Z,16
2022-10-02T15:00:31.128Z,16.1
2022-10-02T15:10:31.580Z,16
2022-10-02T15:20:32.151Z,16.1
2022-10-02T15:30:32.521Z,16.2
2022-10-02T15:40:32.907Z,16.2
2022-10-02T15:50:33.649Z,16.2
2022-10-02T16:00:34.368Z,16.4
2022-10-02T16:10:34.641Z,16.3
2022-10-02T16:30:35.139Z,15.7
2022-10-02T16:50:39.158Z,15.2
2022-10-02T17:00:36.686Z,14.8
2022-10-02T17:10:36.734Z,14.5
2022-10-02T17:20:37.353Z,14
2022-10-02T17:30:38.205Z,13.4
2022-10-02T17:40:38.592Z,13
2022-10-02T17:50:39.501Z,12.7
2022-10-02T18:00:39.764Z,12.6
2022-10-02T18:10:40.281Z,12.4
2022-10-02T18:20:40.737Z,12.2
2022-10-02T18:30:41.669Z,12
2022-10-02T18:40:42.573Z,12.3
2022-10-02T18:50:43.420Z,12.2
2022-10-02T19:00:43.859Z,12.5
2022-10-02T19:10:44.345Z,12.6
2022-10-02T19:20:44.699Z,12.7
2022-10-02T19:30:45.508Z,12.6
2022-10-02T19:40:45.672Z,12.6
2022-10-02T19:50:46.621Z,12.4
2022-10-02T20:00:46.696Z,12.4
2022-10-02T20:30:47.495Z,11.6
2022-10-02T20:40:47.729Z,11.3
2022-10-02T21:40:51.362Z,10.2
2022-10-02T22:00:52.686Z,10.1
2022-10-02T22:10:53.572Z,9.9
2022-10-02T22:20:53.793Z,9.8
2022-10-02T22:30:54.548Z,9.7
2022-10-02T22:40:55.236Z,9.6
2022-10-02T22:50:55.614Z,9.5
2022-10-02T23:00:56.300Z,9.5
2022-10-02T23:10:56.402Z,9.4
2022-10-02T23:20:57.156Z,9.3
2022-10-02T23:30:57.956Z,9.1
2022-10-02T23:40:58.927Z,9.1
2022-10-02T23:51:05.039Z,8.9
